createdAt,value
2019-05-14T00:01:51.541Z,6.23
2019-05-14T00:04:22.042Z,7.93
2019-05-14T00:06:52.017Z,8.60
2019-05-14T00:09:21.599Z,6.50
2019-05-14T00:11:51.504Z,6.50
2019-05-14T00:14:22.113Z,10.30
2019-05-14T00:16:52.368Z,8.83
2019-05-14T00:19:22.077Z,8.30
2019-05-14T00:21:51.532Z,9.33
2019-05-14T00:24:21.725Z,7.77
2019-05-14T00:26:51.700Z,7.83
2019-05-14T00:29:21.970Z,8.80
2019-05-14T00:31:52.048Z,6.37
2019-05-14T00:34:21.569Z,7.97
2019-05-14T00:36:52.455Z,10.77
2019-05-14T00:39:22.072Z,7.73
2019-05-14T00:41:51.532Z,7.60
2019-05-14T00:44:21.527Z,6.83
2019-05-14T00:46:51.637Z,7.73
2019-05-14T00:49:21.336Z,9.93
2019-05-14T00:51:51.937Z,7.97
2019-05-14T00:54:21.670Z,8.53
2019-05-14T00:56:52.210Z,7.67
2019-05-14T00:59:22.038Z,7.97
2019-05-14T01:01:51.745Z,8.97
2019-05-14T01:04:22.279Z,8.40
2019-05-14T01:06:51.936Z,7.60
2019-05-14T01:09:21.821Z,10.03
2019-05-14T01:11:51.462Z,7.50
2019-05-14T01:14:21.210Z,8.93
2019-05-14T01:16:51.484Z,10.37
2019-05-14T01:22:26.608Z,8.30
2019-05-14T01:24:56.018Z,9.43
2019-05-14T01:30:31.985Z,10.73
2019-05-14T01:33:02.035Z,8.70
2019-05-14T01:35:31.759Z,8.83
2019-05-14T01:38:02.900Z,10.03
2019-05-14T01:40:32.401Z,9.87
2019-05-14T01:46:02.026Z,9.87
2019-05-14T01:48:31.855Z,8.63
2019-05-14T01:51:01.690Z,9.47
2019-05-14T01:53:31.398Z,11.20
2019-05-14T01:56:02.105Z,9.73
2019-05-14T01:58:31.490Z,10.17
2019-05-14T02:01:02.058Z,10.83
2019-05-14T02:03:32.303Z,9.07
2019-05-14T02:06:01.929Z,9.80
2019-05-14T02:08:32.299Z,8.87
2019-05-14T02:11:02.124Z,11.07
2019-05-14T02:13:32.202Z,10.23
2019-05-14T02:16:02.413Z,10.13
2019-05-14T02:18:32.188Z,12.43
2019-05-14T02:21:01.886Z,10.00
2019-05-14T02:23:32.036Z,9.87
2019-05-14T02:26:02.531Z,10.73
2019-05-14T02:28:32.448Z,10.10
2019-05-14T02:31:03.408Z,10.23
2019-05-14T02:33:33.002Z,10.37
2019-05-14T02:36:02.448Z,14.93
2019-05-14T02:38:31.959Z,10.57
2019-05-14T02:41:01.467Z,10.63
2019-05-14T02:43:30.899Z,10.17
2019-05-14T02:46:10.779Z,10.13
2019-05-14T02:48:31.445Z,10.90
2019-05-14T02:51:00.872Z,9.87
2019-05-14T02:53:30.327Z,10.33
2019-05-14T02:55:59.889Z,9.43
2019-05-14T02:58:30.119Z,9.67
2019-05-14T03:01:00.399Z,9.57
2019-05-14T03:03:30.284Z,9.83
2019-05-14T03:06:00.571Z,9.17
2019-05-14T03:08:30.716Z,8.83
2019-05-14T03:11:00.711Z,9.70
2019-05-14T03:16:40.025Z,10.50
2019-05-14T03:19:09.980Z,13.33
2019-05-14T03:21:39.537Z,12.97
2019-05-14T03:24:09.755Z,10.07
2019-05-14T03:26:39.942Z,11.67
2019-05-14T03:29:10.113Z,12.07
2019-05-14T03:31:42.933Z,12.10
2019-05-14T03:34:13.374Z,11.47
2019-05-14T03:36:43.605Z,10.70
2019-05-14T03:39:13.062Z,10.90
2019-05-14T03:41:42.517Z,13.03
2019-05-14T03:44:11.947Z,11.13
2019-05-14T03:46:51.222Z,13.20
2019-05-14T03:49:13.989Z,12.60
2019-05-14T03:51:43.436Z,11.73
2019-05-14T03:54:13.172Z,10.90
2019-05-14T03:56:42.750Z,11.77
2019-05-14T03:59:12.257Z,10.97
2019-05-14T04:01:41.913Z,12.03
2019-05-14T04:04:11.482Z,12.30
2019-05-14T04:06:43.112Z,12.13
2019-05-14T04:09:15.214Z,12.63
2019-05-14T04:11:50.161Z,9.60
2019-05-14T04:14:20.791Z,14.00
2019-05-14T04:17:05.309Z,11.40
2019-05-14T04:19:24.721Z,12.70
2019-05-14T04:21:55.714Z,13.07
2019-05-14T04:24:29.521Z,12.07
2019-05-14T04:27:07.501Z,11.97
2019-05-14T04:29:33.972Z,12.00
2019-05-14T04:32:04.625Z,14.10
2019-05-14T04:34:34.556Z,11.87
2019-05-14T04:37:04.021Z,12.27
2019-05-14T04:39:33.507Z,12.47
2019-05-14T04:42:02.992Z,16.53
2019-05-14T04:44:32.440Z,12.87
2019-05-14T04:47:20.209Z,14.67
2019-05-14T04:49:32.906Z,12.17
2019-05-14T04:52:02.394Z,12.07
2019-05-14T04:54:31.842Z,16.17
2019-05-14T04:57:01.313Z,11.73
2019-05-14T04:59:31.493Z,13.77
2019-05-14T05:02:00.891Z,13.57
2019-05-14T05:04:30.449Z,9.67
2019-05-14T05:06:59.944Z,12.53
2019-05-14T05:09:29.681Z,11.47
2019-05-14T05:11:59.969Z,14.17
2019-05-14T05:14:29.814Z,10.10
2019-05-14T05:16:59.740Z,11.67
2019-05-14T05:19:29.410Z,17.47
2019-05-14T05:21:58.918Z,20.67
2019-05-14T05:24:28.831Z,14.77
2019-05-14T05:26:58.731Z,13.73
2019-05-14T05:29:28.722Z,11.50
2019-05-14T05:31:59.315Z,9.63
2019-05-14T05:34:29.034Z,10.53
2019-05-14T05:36:59.477Z,11.37
2019-05-14T05:39:29.562Z,10.97
2019-05-14T05:41:59.064Z,9.93
2019-05-14T05:44:28.874Z,9.80
2019-05-14T05:46:59.658Z,9.87
2019-05-14T05:49:29.399Z,11.03
2019-05-14T05:51:59.306Z,11.47
2019-05-14T05:54:29.260Z,9.17
2019-05-14T05:56:59.016Z,9.77
2019-05-14T05:59:29.303Z,10.17
2019-05-14T06:01:59.048Z,16.63
2019-05-14T06:04:29.051Z,12.13
2019-05-14T06:07:02.226Z,12.13
2019-05-14T06:09:30.561Z,11.03
2019-05-14T06:12:00.114Z,12.23
2019-05-14T06:14:29.615Z,10.07
2019-05-14T06:16:59.289Z,12.63
2019-05-14T06:19:29.170Z,13.27
2019-05-14T06:21:59.733Z,11.17
2019-05-14T06:24:29.297Z,11.00
2019-05-14T06:26:59.973Z,12.13
2019-05-14T06:29:29.428Z,9.83
2019-05-14T06:31:59.108Z,11.57
2019-05-14T06:34:29.171Z,10.27
2019-05-14T06:36:59.308Z,9.37
2019-05-14T06:39:28.978Z,10.27
2019-05-14T06:41:58.728Z,9.90
2019-05-14T06:44:29.409Z,8.63
2019-05-14T06:46:59.192Z,11.97
2019-05-14T06:49:31.969Z,8.93
2019-05-14T06:52:01.403Z,9.80
2019-05-14T06:54:30.852Z,10.13
2019-05-14T06:57:00.289Z,9.60
2019-05-14T06:59:30.537Z,10.17
2019-05-14T07:01:59.979Z,8.80
2019-05-14T07:04:29.489Z,9.07
2019-05-14T07:06:59.252Z,9.27
2019-05-14T07:09:29.060Z,8.77
2019-05-14T07:11:58.702Z,10.33
2019-05-14T07:14:28.364Z,8.47
2019-05-14T07:16:58.786Z,9.63
2019-05-14T07:19:29.487Z,9.93
2019-05-14T07:21:59.257Z,9.03
2019-05-14T07:24:28.678Z,6.57
2019-05-14T07:26:58.721Z,12.37
2019-05-14T07:29:29.275Z,8.50
2019-05-14T07:31:59.072Z,8.10
2019-05-14T07:34:28.487Z,10.20
2019-05-14T07:36:58.740Z,9.30
2019-05-14T07:39:29.094Z,9.70
2019-05-14T07:42:00.791Z,6.80
2019-05-14T07:44:30.207Z,7.37
2019-05-14T07:46:59.775Z,8.73
2019-05-14T07:49:30.653Z,10.57
2019-05-14T07:52:00.100Z,9.63
2019-05-14T07:54:29.491Z,10.43
2019-05-14T07:56:59.180Z,9.40
2019-05-14T07:59:28.894Z,7.47
2019-05-14T08:01:58.748Z,8.80
2019-05-14T08:04:28.935Z,6.90
2019-05-14T08:06:58.602Z,6.97
2019-05-14T08:09:28.396Z,7.40
2019-05-14T08:11:58.769Z,6.67
2019-05-14T08:14:29.405Z,7.73
2019-05-14T08:16:59.722Z,5.80
2019-05-14T08:19:31.398Z,7.33
2019-05-14T08:22:00.188Z,9.17
2019-05-14T08:24:30.208Z,7.67
2019-05-14T08:26:59.713Z,7.53
2019-05-14T08:29:29.173Z,6.60
2019-05-14T08:31:58.605Z,6.70
2019-05-14T08:34:30.350Z,9.40
2019-05-14T08:36:59.034Z,7.43
2019-05-14T08:39:28.725Z,7.17
2019-05-14T08:42:03.064Z,6.93
2019-05-14T08:47:25.139Z,6.73
2019-05-14T08:49:54.568Z,6.90
2019-05-14T08:52:24.016Z,8.10
2019-05-14T08:55:05.325Z,5.73
2019-05-14T08:57:24.607Z,8.83
2019-05-14T08:59:54.054Z,5.17
2019-05-14T09:02:23.503Z,5.87
2019-05-14T09:04:54.832Z,7.57
2019-05-14T09:07:24.016Z,6.70
2019-05-14T09:09:53.454Z,7.73
2019-05-14T09:12:22.923Z,7.77
2019-05-14T09:14:52.325Z,8.53
2019-05-14T09:17:21.770Z,5.73
2019-05-14T09:20:02.371Z,7.30
2019-05-14T09:22:22.237Z,7.67
2019-05-14T09:24:51.681Z,6.40
2019-05-14T09:27:21.117Z,6.33
2019-05-14T09:29:50.568Z,5.70
2019-05-14T09:32:20.011Z,6.07
2019-05-14T09:34:49.435Z,6.10
2019-05-14T09:37:19.557Z,7.90
2019-05-14T09:39:49.006Z,6.17
2019-05-14T09:42:19.540Z,7.20
2019-05-14T09:44:49.318Z,6.73
2019-05-14T09:47:19.109Z,8.07
2019-05-14T09:49:49.065Z,8.33
2019-05-14T09:52:18.883Z,7.77
2019-05-14T09:54:49.614Z,5.43
2019-05-14T09:57:19.195Z,6.33
2019-05-14T09:59:48.583Z,6.23
2019-05-14T10:02:18.467Z,6.07
2019-05-14T10:04:49.074Z,7.37
2019-05-14T10:07:18.616Z,7.50
2019-05-14T10:09:49.252Z,6.70
2019-05-14T10:12:18.730Z,6.37
2019-05-14T10:14:48.747Z,6.77
2019-05-14T10:17:19.327Z,8.03
2019-05-14T10:19:49.725Z,6.50
2019-05-14T10:22:19.960Z,5.33
2019-05-14T10:24:49.517Z,7.80
2019-05-14T10:27:19.065Z,9.13
2019-05-14T10:29:48.462Z,6.80
2019-05-14T10:32:18.650Z,7.87
2019-05-14T10:34:48.631Z,7.30
2019-05-14T10:37:19.176Z,4.90
2019-05-14T10:39:48.912Z,8.50
2019-05-14T10:42:20.108Z,7.03
2019-05-14T10:44:49.417Z,6.80
2019-05-14T10:47:18.977Z,8.83
2019-05-14T10:49:48.504Z,5.40
2019-05-14T10:52:19.780Z,6.00
2019-05-14T10:54:55.898Z,6.70
2019-05-14T10:57:20.157Z,7.57
2019-05-14T10:59:49.646Z,7.37
2019-05-14T11:02:19.161Z,9.27
2019-05-14T11:04:48.671Z,5.83
2019-05-14T11:07:18.689Z,11.00
2019-05-14T11:09:48.610Z,6.27
2019-05-14T11:12:19.297Z,8.03
2019-05-14T11:14:49.550Z,6.63
2019-05-14T11:17:19.593Z,6.17
2019-05-14T11:19:50.341Z,9.20
2019-05-14T11:22:19.780Z,5.20
2019-05-14T11:24:49.366Z,6.93
2019-05-14T11:27:18.886Z,7.20
2019-05-14T11:29:49.162Z,8.30
2019-05-14T11:32:21.832Z,7.23
2019-05-14T11:34:52.861Z,9.87
2019-05-14T11:37:22.283Z,6.50
2019-05-14T11:39:51.789Z,7.00
2019-05-14T11:42:21.308Z,6.97
2019-05-14T11:44:50.806Z,8.17
2019-05-14T11:47:20.266Z,9.47
2019-05-14T11:49:49.746Z,7.13
2019-05-14T11:52:19.366Z,6.87
2019-05-14T11:54:49.511Z,8.37
2019-05-14T11:57:19.485Z,6.00
2019-05-14T11:59:49.336Z,9.57
2019-05-14T12:02:20.586Z,7.20
2019-05-14T12:04:50.217Z,6.67
2019-05-14T12:07:19.756Z,7.33
2019-05-14T12:09:49.581Z,7.33
2019-05-14T12:12:19.199Z,7.70
2019-05-14T12:14:48.819Z,6.13
2019-05-14T12:17:18.279Z,8.03
2019-05-14T12:19:48.467Z,7.00
2019-05-14T12:22:19.010Z,5.93
2019-05-14T12:24:49.717Z,5.13
2019-05-14T12:27:19.431Z,6.17
2019-05-14T12:29:49.800Z,6.33
2019-05-14T12:32:19.776Z,5.43
2019-05-14T12:34:49.314Z,8.73
2019-05-14T12:37:18.869Z,7.77
2019-05-14T12:39:48.313Z,4.83
2019-05-14T12:42:19.337Z,8.17
2019-05-14T12:44:49.190Z,7.47
2019-05-14T12:47:18.981Z,5.87
2019-05-14T12:49:48.938Z,6.67
2019-05-14T12:52:25.474Z,5.77
2019-05-14T12:54:50.095Z,8.73
2019-05-14T12:57:19.922Z,8.53
2019-05-14T12:59:49.764Z,6.67
2019-05-14T13:02:19.335Z,6.47
2019-05-14T13:04:49.216Z,5.03
2019-05-14T13:07:19.233Z,6.27
2019-05-14T13:10:03.571Z,8.73
2019-05-14T13:12:33.049Z,7.30
2019-05-14T13:15:02.561Z,6.63
2019-05-14T13:17:32.037Z,10.93
2019-05-14T13:20:01.658Z,7.37
2019-05-14T13:22:42.534Z,5.83
2019-05-14T13:25:02.085Z,5.87
2019-05-14T13:27:31.521Z,6.47
2019-05-14T13:30:00.970Z,4.80
2019-05-14T13:32:30.400Z,5.80
2019-05-14T13:35:13.890Z,6.63
2019-05-14T13:37:43.422Z,5.80
2019-05-14T13:40:13.958Z,5.13
2019-05-14T13:42:44.613Z,6.17
2019-05-14T13:45:15.253Z,6.20
2019-05-14T13:48:03.730Z,7.13
2019-05-14T13:50:33.167Z,5.87
2019-05-14T13:53:09.368Z,5.87
2019-05-14T13:55:58.471Z,7.77
2019-05-14T13:58:28.598Z,5.17
2019-05-14T14:00:59.230Z,4.87
2019-05-14T14:03:29.375Z,5.33
2019-05-14T14:05:59.595Z,7.07
2019-05-14T14:08:29.423Z,7.37
2019-05-14T14:11:03.015Z,5.90
2019-05-14T14:13:31.364Z,7.43
2019-05-14T14:16:01.160Z,5.77
2019-05-14T14:18:30.496Z,7.43
2019-05-14T14:20:59.922Z,5.77
2019-05-14T14:23:31.318Z,6.10
2019-05-14T14:26:00.513Z,6.33
2019-05-14T14:28:31.572Z,9.00
2019-05-14T14:31:02.717Z,5.60
2019-05-14T14:33:32.193Z,5.43
2019-05-14T14:36:01.651Z,7.40
2019-05-14T14:38:31.097Z,5.03
2019-05-14T14:41:00.557Z,5.43
2019-05-14T14:43:30.072Z,7.23
2019-05-14T14:45:59.584Z,6.17
2019-05-14T14:48:30.194Z,5.93
2019-05-14T14:51:00.035Z,5.33
2019-05-14T14:53:44.971Z,5.80
2019-05-14T14:56:00.692Z,5.37
2019-05-14T14:58:31.647Z,6.40
2019-05-14T15:01:01.494Z,5.50
2019-05-14T15:03:30.984Z,6.00
2019-05-14T15:09:10.371Z,6.27
2019-05-14T15:11:39.888Z,4.70
2019-05-14T15:14:09.330Z,7.53
2019-05-14T15:16:39.724Z,5.07
2019-05-14T15:19:09.570Z,5.47
2019-05-14T15:21:39.141Z,6.70
2019-05-14T15:24:15.175Z,4.27
2019-05-14T15:26:39.696Z,7.20
2019-05-14T15:29:10.016Z,6.07
2019-05-14T15:31:39.496Z,3.90
2019-05-14T15:34:09.196Z,7.03
2019-05-14T15:36:41.439Z,6.00
2019-05-14T15:39:10.591Z,5.53
2019-05-14T15:42:06.390Z,6.73
2019-05-14T15:44:49.017Z,6.20
2019-05-14T15:47:11.237Z,6.70
2019-05-14T15:52:58.762Z,6.67
2019-05-14T15:55:28.909Z,4.30
2019-05-14T15:57:59.416Z,5.70
2019-05-14T16:00:29.285Z,6.53
2019-05-14T16:03:00.215Z,5.37
2019-05-14T16:05:29.808Z,6.07
2019-05-14T16:07:59.595Z,4.70
2019-05-14T16:10:30.860Z,5.77
2019-05-14T16:13:00.048Z,6.00
2019-05-14T16:15:29.470Z,6.63
2019-05-14T16:18:08.060Z,5.43
2019-05-14T16:20:29.970Z,7.13
2019-05-14T16:22:59.385Z,6.47
2019-05-14T16:25:28.837Z,7.00
2019-05-14T16:28:01.732Z,8.10
2019-05-14T16:30:31.228Z,8.33
2019-05-14T16:33:00.750Z,6.10
2019-05-14T16:35:30.322Z,6.97
2019-05-14T16:37:59.784Z,6.70
2019-05-14T16:40:29.229Z,6.33
2019-05-14T16:42:59.192Z,8.83
2019-05-14T16:45:29.050Z,6.00
2019-05-14T16:47:59.358Z,7.17
2019-05-14T16:50:29.074Z,5.23
2019-05-14T16:52:59.095Z,5.43
2019-05-14T16:55:30.603Z,6.00
2019-05-14T16:57:59.864Z,5.43
2019-05-14T17:00:29.605Z,6.40
2019-05-14T17:02:59.475Z,6.63
2019-05-14T17:05:29.935Z,6.60
2019-05-14T17:10:55.451Z,6.33
2019-05-14T17:13:25.328Z,6.67
2019-05-14T17:15:54.871Z,6.30
2019-05-14T17:18:25.629Z,5.53
2019-05-14T17:20:55.226Z,8.10
2019-05-14T17:23:24.722Z,5.73
2019-05-14T17:25:54.220Z,6.20
2019-05-14T17:28:28.424Z,5.80
2019-05-14T17:30:56.998Z,7.57
2019-05-14T17:33:29.140Z,5.33
2019-05-14T17:36:01.088Z,5.40
2019-05-14T17:38:30.631Z,6.17
2019-05-14T17:41:01.246Z,5.20
2019-05-14T17:49:23.667Z,5.47
2019-05-14T17:51:53.217Z,8.00
2019-05-14T17:54:22.758Z,5.47
2019-05-14T17:56:54.118Z,5.77
2019-05-14T17:59:24.107Z,7.10
2019-05-14T18:01:53.730Z,6.00
2019-05-14T18:04:23.283Z,5.37
2019-05-14T18:06:52.766Z,6.43
2019-05-14T18:09:22.659Z,6.30
2019-05-14T18:11:52.532Z,4.27
2019-05-14T18:14:22.032Z,5.00
2019-05-14T18:16:53.139Z,5.57
2019-05-14T18:19:22.569Z,6.63
2019-05-14T18:21:52.069Z,5.07
2019-05-14T18:24:21.732Z,4.43
2019-05-14T18:26:51.578Z,4.17
2019-05-14T18:29:23.075Z,6.00
2019-05-14T18:31:54.542Z,6.00
2019-05-14T18:34:23.767Z,5.37
2019-05-14T18:36:53.320Z,4.50
2019-05-14T18:39:22.841Z,4.73
2019-05-14T18:41:52.336Z,4.27
2019-05-14T18:44:21.908Z,5.77
2019-05-14T18:46:51.476Z,4.10
2019-05-14T18:49:20.950Z,5.33
2019-05-14T18:51:50.469Z,5.60
2019-05-14T18:54:21.463Z,4.57
2019-05-14T18:56:50.968Z,3.70
2019-05-14T18:59:21.233Z,4.60
2019-05-14T19:01:53.651Z,6.67
2019-05-14T19:04:27.854Z,5.53
2019-05-14T19:06:59.061Z,4.00
2019-05-14T19:09:29.206Z,4.93
2019-05-14T19:11:59.313Z,3.83
2019-05-14T19:14:29.419Z,5.33
2019-05-14T19:16:59.572Z,6.67
2019-05-14T19:19:30.127Z,5.03
2019-05-14T19:25:03.231Z,6.87
2019-05-14T19:27:32.651Z,6.80
2019-05-14T19:30:03.254Z,9.10
2019-05-14T19:32:32.852Z,4.27
2019-05-14T19:35:02.397Z,5.40
2019-05-14T19:37:31.888Z,5.23
2019-05-14T19:40:01.344Z,5.80
2019-05-14T19:42:30.831Z,5.40
2019-05-14T19:45:02.553Z,5.07
2019-05-14T19:47:32.014Z,5.23
2019-05-14T19:50:01.426Z,5.87
2019-05-14T19:52:30.871Z,5.97
2019-05-14T19:55:00.357Z,6.70
2019-05-14T20:03:32.879Z,6.53
2019-05-14T20:06:02.259Z,5.43
2019-05-14T20:08:31.674Z,5.77
2019-05-14T20:11:01.131Z,7.70
2019-05-14T20:13:30.590Z,6.60
2019-05-14T20:19:08.699Z,9.17
2019-05-14T20:21:39.228Z,7.50
2019-05-14T20:24:08.720Z,9.57
2019-05-14T20:26:39.159Z,5.70
2019-05-14T20:29:08.986Z,5.87
2019-05-14T20:31:39.111Z,7.33
2019-05-14T20:34:08.884Z,5.97
2019-05-14T20:36:40.636Z,5.83
2019-05-14T20:42:18.350Z,6.57
2019-05-14T20:44:49.182Z,8.17
2019-05-14T20:47:19.067Z,6.77
2019-05-14T20:49:48.736Z,5.53
2019-05-14T20:52:19.469Z,4.50
2019-05-14T20:54:49.000Z,5.30
2019-05-14T20:57:24.393Z,5.17
2019-05-14T20:59:51.231Z,5.20
2019-05-14T21:02:20.691Z,6.70
2019-05-14T21:04:54.356Z,5.70
2019-05-14T21:07:21.297Z,4.83
2019-05-14T21:09:50.928Z,5.13
2019-05-14T21:12:21.297Z,6.67
2019-05-14T21:14:50.792Z,5.30
2019-05-14T21:17:20.263Z,8.50
2019-05-14T21:19:49.747Z,7.23
2019-05-14T21:22:19.367Z,8.10
2019-05-14T21:24:53.276Z,5.07
2019-05-14T21:27:36.682Z,5.87
2019-05-14T21:29:58.389Z,7.03
2019-05-14T21:32:28.327Z,5.20
2019-05-14T21:34:58.492Z,6.77
2019-05-14T21:37:28.435Z,7.20
2019-05-14T21:39:58.287Z,6.33
2019-05-14T21:42:28.584Z,6.13
2019-05-14T21:44:58.498Z,7.20
2019-05-14T21:47:28.534Z,7.30
2019-05-14T21:49:58.383Z,5.57
2019-05-14T21:52:28.991Z,6.10
2019-05-14T21:54:58.871Z,6.17
2019-05-14T21:57:28.489Z,6.03
2019-05-14T21:59:58.833Z,7.13
2019-05-14T22:02:30.518Z,6.90
2019-05-14T22:05:01.479Z,8.00
2019-05-14T22:07:30.735Z,6.13
2019-05-14T22:10:00.167Z,7.30
2019-05-14T22:12:29.608Z,10.33
2019-05-14T22:14:59.078Z,9.17
2019-05-14T22:17:28.612Z,6.77
2019-05-14T22:19:58.459Z,7.93
2019-05-14T22:22:30.704Z,7.37
2019-05-14T22:24:59.136Z,7.23
2019-05-14T22:27:28.620Z,8.30
2019-05-14T22:29:58.648Z,6.60
2019-05-14T22:32:28.618Z,7.07
2019-05-14T22:34:58.547Z,7.70
2019-05-14T22:37:28.181Z,7.77
2019-05-14T22:39:59.027Z,7.33
2019-05-14T22:42:28.591Z,8.37
2019-05-14T22:44:58.439Z,6.60
2019-05-14T22:47:27.919Z,6.80
2019-05-14T22:49:59.145Z,9.50
2019-05-14T22:52:31.141Z,8.67
2019-05-14T22:54:59.714Z,8.00
2019-05-14T22:57:31.111Z,7.87
2019-05-14T23:00:00.271Z,8.00
2019-05-14T23:02:29.754Z,9.20
2019-05-14T23:05:00.194Z,8.10
2019-05-14T23:07:29.540Z,7.43
2019-05-14T23:09:59.112Z,8.90
2019-05-14T23:12:28.775Z,7.97
2019-05-14T23:14:58.236Z,6.77
2019-05-14T23:17:28.148Z,8.77
2019-05-14T23:19:58.132Z,9.47
2019-05-14T23:22:29.566Z,8.33
2019-05-14T23:24:59.293Z,8.63
2019-05-14T23:27:29.466Z,8.33
2019-05-14T23:29:59.101Z,7.90
2019-05-14T23:32:28.664Z,8.77
2019-05-14T23:34:58.560Z,11.07
2019-05-14T23:37:29.106Z,7.40
2019-05-14T23:40:00.339Z,7.70
2019-05-14T23:42:29.786Z,9.30
2019-05-14T23:44:59.237Z,10.80
2019-05-14T23:47:29.021Z,8.97
2019-05-14T23:49:58.718Z,12.07
2019-05-14T23:52:29.368Z,9.77
2019-05-14T23:54:59.302Z,8.27
2019-05-14T23:57:28.931Z,9.47
2019-05-14T23:59:58.492Z,8.00
